Time;durP1;ratioP1;P1;durP2;ratioP2;P2;SDS_P1;SDS_P2;PMS_P1;PMS_P2;Temp;Humidity;BMP_temperature;BMP_pressure;BME280_temperature;BME280_humidity;BME280_pressure;Samples;Min_cycle;Max_cycle;Signal;HPM_P1;HPM_P2
2023/09/17 00:01:06;;;;;;;;;9.33;9.33;;;;;23.06;60.15;100653.72;4997612;28;45400;-70
2023/09/17 00:03:32;;;;;;;;;8.00;8.00;;;;;23.29;59.84;100686.38;4997905;28;45425;-68
2023/09/17 00:05:57;;;;;;;;;8.67;8.67;;;;;23.33;60.37;100684.03;4997548;28;45349;-68
2023/09/17 00:08:23;;;;;;;;;10.67;7.00;;;;;23.25;60.03;100674.34;4997196;28;46534;-68
2023/09/17 00:10:49;;;;;;;;;6.67;6.67;;;;;23.19;60.13;100667.09;4997299;28;45483;-68
2023/09/17 00:13:14;;;;;;;;;13.00;10.33;;;;;23.09;60.15;100649.72;4997682;28;45277;-69
2023/09/17 00:15:40;;;;;;;;;8.00;7.33;;;;;23.24;60.58;100674.56;4997589;28;45572;-68
2023/09/17 00:18:05;;;;;;;;;8.00;8.00;;;;;23.23;60.50;100676.44;4995197;28;45659;-69
2023/09/17 00:20:31;;;;;;;;;9.67;9.00;;;;;23.26;60.57;100684.13;5012124;28;45670;-69
2023/09/17 00:22:56;;;;;;;;;5.67;5.67;;;;;23.18;60.25;100673.56;4997444;28;45235;-68
2023/09/17 00:25:21;;;;;;;;;11.00;8.67;;;;;23.19;60.66;100686.06;4997611;28;45214;-68
2023/09/17 00:27:47;;;;;;;;;9.67;7.33;;;;;23.24;60.78;100675.41;4996876;28;46466;-68
2023/09/17 00:30:13;;;;;;;;;9.67;9.67;;;;;23.04;60.89;100648.53;4997313;28;45203;-68
2023/09/17 00:32:39;;;;;;;;;5.00;5.00;;;;;23.21;60.59;100672.28;4997344;28;45481;-68
2023/09/17 00:35:05;;;;;;;;;8.00;7.33;;;;;23.19;61.09;100683.38;5025755;28;45493;-69
2023/09/17 00:37:31;;;;;;;;;7.67;7.67;;;;;23.20;61.05;100689.63;5036657;28;46541;-68
2023/09/17 00:39:57;;;;;;;;;9.33;5.67;;;;;23.04;60.66;100666.69;5036526;28;45542;-69
2023/09/17 00:42:22;;;;;;;;;9.33;7.00;;;;;23.12;60.87;100668.25;5040670;28;45285;-68
2023/09/17 00:44:48;;;;;;;;;7.33;7.33;;;;;23.17;61.00;100679.22;5043934;28;45290;-68
2023/09/17 00:47:13;;;;;;;;;7.00;7.00;;;;;23.15;60.83;100690.31;5025327;28;46430;-68
2023/09/17 00:49:39;;;;;;;;;7.67;7.67;;;;;23.00;61.14;100657.31;5024533;28;45244;-69
2023/09/17 00:52:14;;;;;;;;;9.00;8.00;;;;;23.12;60.82;100677.22;5023215;28;45498;-68
2023/09/17 00:54:40;;;;;;;;;7.00;7.00;;;;;22.81;61.18;100623.13;5005676;28;45264;-68
2023/09/17 00:57:05;;;;;;;;;5.67;5.67;;;;;22.99;61.26;100666.50;5023027;28;46637;-69
2023/09/17 00:59:31;;;;;;;;;10.33;9.00;;;;;23.02;61.29;100685.88;5023267;28;45388;-68
2023/09/17 01:01:56;;;;;;;;;12.33;9.67;;;;;22.99;61.08;100685.50;5023202;28;45240;-68
2023/09/17 01:04:22;;;;;;;;;7.00;7.00;;;;;22.95;61.87;100689.72;5023487;28;45419;-68
2023/09/17 01:06:49;;;;;;;;;13.00;11.00;;;;;22.84;61.89;100676.94;5022761;28;45596;-68
2023/09/17 01:09:15;;;;;;;;;6.00;4.33;;;;;22.53;61.77;100643.47;5023040;28;45531;-69
2023/09/17 01:11:42;;;;;;;;;9.00;8.00;;;;;22.74;62.33;100680.97;5023196;28;45306;-68
2023/09/17 01:14:12;;;;;;;;;8.67;8.33;;;;;22.75;62.01;100685.31;5023263;28;45304;-68
2023/09/17 01:16:37;;;;;;;;;10.33;8.33;;;;;22.73;62.95;100684.72;5023036;28;45798;-68
2023/09/17 01:19:03;;;;;;;;;9.67;8.33;;;;;22.69;62.71;100690.81;5036894;28;45147;-68
2023/09/17 01:21:48;;;;;;;;;9.00;9.00;;;;;22.65;62.88;100682.31;5042829;28;45421;-68
2023/09/17 01:24:40;;;;;;;;;11.00;10.00;;;;;22.62;62.95;100671.06;5043110;28;45263;-68
2023/09/17 01:27:06;;;;;;;;;9.00;8.00;;;;;22.56;63.33;100670.09;5042916;28;45968;-69
2023/09/17 01:29:35;;;;;;;;;7.33;7.33;;;;;22.62;62.86;100679.22;5042664;28;45226;-68
2023/09/17 01:32:00;;;;;;;;;9.00;9.00;;;;;22.63;63.37;100689.03;5042987;28;45444;-68
2023/09/17 01:34:27;;;;;;;;;10.67;10.67;;;;;22.63;63.18;100681.72;5042871;28;45486;-68
2023/09/17 01:36:59;;;;;;;;;9.33;9.00;;;;;22.63;63.04;100689.03;5042399;28;46544;-68
2023/09/17 01:39:29;;;;;;;;;7.33;7.00;;;;;22.62;63.14;100674.63;5042792;28;45334;-67
2023/09/17 01:41:55;;;;;;;;;8.00;8.00;;;;;22.11;63.06;100596.41;5042790;28;45428;-68
2023/09/17 01:44:24;;;;;;;;;8.67;7.00;;;;;22.58;63.12;100673.41;5042924;28;45198;-68
2023/09/17 01:46:51;;;;;;;;;8.33;7.00;;;;;22.48;63.22;100650.63;5042576;28;47533;-68
2023/09/17 01:49:17;;;;;;;;;7.67;7.67;;;;;22.60;62.81;100679.44;5006084;28;45494;-68
2023/09/17 01:51:43;;;;;;;;;6.33;6.33;;;;;22.45;62.98;100655.44;5042506;28;45436;-68
2023/09/17 01:54:10;;;;;;;;;8.00;8.00;;;;;22.51;63.07;100661.81;5021936;28;45527;-68
2023/09/17 01:56:37;;;;;;;;;6.67;5.67;;;;;22.50;62.97;100671.00;5039242;28;46535;-68
2023/09/17 01:59:04;;;;;;;;;7.00;6.00;;;;;22.25;63.22;100629.59;5039203;28;45238;-69
2023/09/17 02:01:30;;;;;;;;;10.00;10.00;;;;;22.52;62.98;100671.59;5039418;28;45367;-68
2023/09/17 02:03:55;;;;;;;;;6.33;6.33;;;;;22.56;63.57;100669.28;5021530;28;45534;-68
2023/09/17 02:06:20;;;;;;;;;7.00;7.00;;;;;22.56;63.31;100678.22;5038903;28;48763;-68
2023/09/17 02:08:45;;;;;;;;;4.67;4.00;;;;;22.40;63.08;100654.41;5039132;28;45394;-68
2023/09/17 02:11:11;;;;;;;;;8.00;5.00;;;;;22.54;63.50;100672.22;5038502;28;60301;-68
2023/09/17 02:13:36;;;;;;;;;6.00;6.00;;;;;22.27;63.52;100617.47;5038943;28;45513;-67
2023/09/17 02:16:02;;;;;;;;;7.67;6.67;;;;;22.56;63.44;100667.41;5039011;28;46290;-68
2023/09/17 02:18:27;;;;;;;;;6.00;6.00;;;;;22.54;63.03;100660.53;5036906;28;45494;-68
2023/09/17 02:20:53;;;;;;;;;7.00;7.00;;;;;22.57;63.34;100666.34;5038764;28;45304;-69
2023/09/17 02:23:18;;;;;;;;;6.67;6.67;;;;;22.50;62.97;100654.75;5039278;28;45387;-68
2023/09/17 02:25:43;;;;;;;;;5.00;4.00;;;;;22.50;63.44;100660.16;5038781;28;47098;-68
2023/09/17 02:28:09;;;;;;;;;8.00;8.00;;;;;22.31;63.31;100639.53;5038889;28;45218;-68
2023/09/17 02:30:34;;;;;;;;;8.67;8.00;;;;;22.14;63.39;100617.59;5038970;28;45296;-69
2023/09/17 02:32:59;;;;;;;;;8.00;8.00;;;;;22.33;63.97;100642.84;5039055;28;45444;-69
2023/09/17 02:35:25;;;;;;;;;8.33;8.33;;;;;22.32;63.78;100646.59;5020314;28;48496;-69
2023/09/17 02:37:50;;;;;;;;;10.00;8.33;;;;;22.10;64.16;100624.53;5038732;28;45345;-69
2023/09/17 02:40:16;;;;;;;;;6.33;6.33;;;;;22.11;64.45;100635.13;5038134;28;53048;-69
2023/09/17 02:42:44;;;;;;;;;7.33;7.33;;;;;21.77;64.88;100595.81;5038639;28;45390;-69
2023/09/17 02:45:09;;;;;;;;;7.00;7.00;;;;;21.75;64.73;100597.09;5038506;28;45421;-69
2023/09/17 02:47:35;;;;;;;;;10.33;10.33;;;;;22.10;64.99;100659.72;5033203;28;49604;-69
2023/09/17 02:50:00;;;;;;;;;8.33;8.33;;;;;22.03;65.01;100650.81;5018136;28;45451;-69
2023/09/17 02:52:26;;;;;;;;;7.33;7.33;;;;;22.04;64.96;100661.44;5017990;28;45518;-69
2023/09/17 02:54:53;;;;;;;;;5.33;3.33;;;;;21.61;65.02;100599.06;5017570;28;46459;-68
2023/09/17 02:57:18;;;;;;;;;7.33;7.33;;;;;21.96;64.94;100658.13;5017996;28;45340;-68
2023/09/17 02:59:44;;;;;;;;;9.33;8.00;;;;;21.97;65.24;100660.63;5018035;28;46249;-68
2023/09/17 03:02:09;;;;;;;;;4.00;4.00;;;;;21.98;65.25;100656.84;5026011;28;45447;-68
2023/09/17 03:04:36;;;;;;;;;5.00;4.67;;;;;21.93;65.45;100651.28;5016519;28;64238;-68
2023/09/17 03:07:04;;;;;;;;;7.33;7.33;;;;;21.84;65.87;100652.63;5017815;28;45584;-68
2023/09/17 03:09:30;;;;;;;;;10.00;7.67;;;;;21.83;65.74;100648.25;5018016;28;45385;-68
2023/09/17 03:11:55;;;;;;;;;6.00;6.00;;;;;21.81;65.83;100648.44;5018170;28;45299;-68
2023/09/17 03:14:21;;;;;;;;;9.00;9.00;;;;;21.75;65.89;100641.22;5017664;28;46659;-68
2023/09/17 03:16:46;;;;;;;;;7.67;7.33;;;;;21.68;65.95;100634.22;5017904;28;45344;-68
2023/09/17 03:19:12;;;;;;;;;8.67;8.00;;;;;21.55;66.33;100616.19;5017571;28;45812;-68
2023/09/17 03:21:40;;;;;;;;;8.00;8.00;;;;;21.51;66.00;100613.09;5016476;28;45473;-69
2023/09/17 03:24:08;;;;;;;;;9.00;9.00;;;;;21.71;66.08;100640.00;5025664;28;46677;-68
2023/09/17 03:26:33;;;;;;;;;8.00;8.00;;;;;21.72;66.15;100647.06;5030947;28;45309;-68
2023/09/17 03:28:59;;;;;;;;;8.00;8.00;;;;;21.70;65.99;100640.22;5002830;28;45663;-68
2023/09/17 03:31:24;;;;;;;;;5.00;5.00;;;;;21.69;66.18;100649.41;5033302;28;45351;-68
2023/09/17 03:33:50;;;;;;;;;12.33;9.33;;;;;21.63;66.26;100629.47;5017409;28;45611;-67
2023/09/17 03:36:15;;;;;;;;;9.33;9.33;;;;;21.65;66.40;100629.25;5017146;28;45462;-69
2023/09/17 03:38:41;;;;;;;;;7.33;6.33;;;;;21.63;66.71;100637.56;5017480;28;45691;-69
2023/09/17 03:41:06;;;;;;;;;8.67;7.67;;;;;21.63;66.69;100632.16;5017910;28;45274;-69
2023/09/17 03:43:34;;;;;;;;;9.00;8.33;;;;;21.60;66.63;100626.34;5017288;28;46330;-68
2023/09/17 03:46:00;;;;;;;;;7.00;7.00;;;;;21.69;66.29;100636.69;5033014;28;45521;-70
2023/09/17 03:48:25;;;;;;;;;7.67;7.67;;;;;21.67;66.24;100648.78;5029049;28;45280;-69
2023/09/17 03:50:50;;;;;;;;;7.33;6.33;;;;;21.47;66.70;100614.59;5036971;28;45339;-69
2023/09/17 03:53:16;;;;;;;;;6.67;6.67;;;;;21.42;66.89;100614.38;5036356;28;46375;-69
2023/09/17 03:55:42;;;;;;;;;7.33;6.67;;;;;21.48;67.17;100646.00;5031156;28;45357;-68
2023/09/17 03:58:08;;;;;;;;;5.00;4.00;;;;;21.38;67.41;100626.69;5017076;28;45302;-67
2023/09/17 04:00:34;;;;;;;;;6.67;6.67;;;;;21.40;67.36;100635.41;5017789;28;45911;-68
2023/09/17 04:03:00;;;;;;;;;8.33;8.33;;;;;21.38;67.53;100633.97;5017305;28;45769;-68
2023/09/17 04:05:25;;;;;;;;;9.00;9.00;;;;;21.30;67.76;100626.97;5027387;28;45428;-68
2023/09/17 04:07:51;;;;;;;;;8.00;7.00;;;;;21.24;67.76;100625.13;5036713;28;45428;-69
2023/09/17 04:10:17;;;;;;;;;8.00;8.00;;;;;21.39;67.44;100632.94;5036577;28;45277;-69
2023/09/17 04:12:44;;;;;;;;;5.67;5.67;;;;;21.40;67.54;100629.19;5013283;28;46645;-69
2023/09/17 04:15:16;;;;;;;;;9.00;9.00;;;;;21.38;67.40;100637.50;5017260;28;45270;-68
2023/09/17 04:17:42;;;;;;;;;7.00;5.00;;;;;21.40;67.48;100634.59;5016303;28;45293;-68
2023/09/17 04:20:13;;;;;;;;;7.33;7.33;;;;;21.40;67.64;100638.13;5025108;28;45445;-71
2023/09/17 04:22:40;;;;;;;;;7.33;7.33;;;;;21.39;67.77;100639.16;5020726;28;46551;-68
2023/09/17 04:25:05;;;;;;;;;8.00;7.00;;;;;21.20;67.81;100613.03;5020726;28;45500;-68
2023/09/17 04:27:32;;;;;;;;;8.33;7.67;;;;;21.28;67.29;100629.06;5016713;28;45317;-68
2023/09/17 04:29:57;;;;;;;;;7.00;7.00;;;;;21.37;67.79;100641.25;5017052;28;45528;-68
2023/09/17 04:32:23;;;;;;;;;9.33;7.33;;;;;21.40;67.72;100642.69;5016410;28;46372;-69
2023/09/17 04:34:48;;;;;;;;;7.00;7.00;;;;;21.40;67.28;100630.00;5021183;28;45461;-68
2023/09/17 04:37:19;;;;;;;;;8.00;8.00;;;;;20.75;67.63;100537.41;5027770;28;45372;-69
2023/09/17 04:39:49;;;;;;;;;8.00;8.00;;;;;21.29;67.97;100624.47;5015276;28;45382;-68
2023/09/17 04:42:14;;;;;;;;;7.67;7.67;;;;;21.26;67.93;100623.03;5024172;28;46192;-68
2023/09/17 04:44:40;;;;;;;;;9.00;9.00;;;;;21.23;68.07;100626.16;5016533;28;45527;-68
2023/09/17 04:47:06;;;;;;;;;6.00;6.00;;;;;20.88;68.25;100572.47;5016937;28;45343;-67
2023/09/17 04:49:32;;;;;;;;;8.00;8.00;;;;;21.14;68.33;100622.03;5032825;28;45267;-69
2023/09/17 04:51:57;;;;;;;;;8.33;8.00;;;;;20.76;68.60;100566.06;5029334;28;46386;-69
2023/09/17 04:54:23;;;;;;;;;10.67;8.00;;;;;21.06;68.59;100620.41;5019265;28;45360;-69
2023/09/17 04:56:49;;;;;;;;;6.00;5.67;;;;;21.09;67.99;100629.97;5016715;28;45361;-69
2023/09/17 04:59:14;;;;;;;;;9.00;9.00;;;;;21.11;68.40;100627.88;5016697;28;45400;-67
2023/09/17 05:01:39;;;;;;;;;8.33;8.33;;;;;20.77;68.29;100562.31;5024593;28;64324;-68
2023/09/17 05:04:05;;;;;;;;;10.33;6.67;;;;;21.14;68.21;100633.66;5013168;28;45511;-69
2023/09/17 05:06:30;;;;;;;;;9.00;6.00;;;;;21.08;68.14;100637.25;5032348;28;45796;-68
2023/09/17 05:08:56;;;;;;;;;5.00;5.00;;;;;20.17;68.44;100502.28;5027497;28;45520;-68
2023/09/17 05:11:21;;;;;;;;;5.67;5.67;;;;;21.01;68.67;100639.13;5035899;28;45493;-68
2023/09/17 05:13:46;;;;;;;;;7.33;6.33;;;;;21.02;68.62;100639.94;5027196;28;45463;-68
2023/09/17 05:16:12;;;;;;;;;9.00;7.33;;;;;20.94;68.44;100639.16;5023447;28;50968;-68
2023/09/17 05:18:37;;;;;;;;;8.67;7.67;;;;;20.90;68.86;100632.53;5016156;28;45589;-68
2023/09/17 05:21:03;;;;;;;;;9.00;7.33;;;;;20.90;68.82;100632.53;5014723;28;48012;-68
2023/09/17 05:23:28;;;;;;;;;8.33;8.33;;;;;20.88;68.84;100629.22;5016200;28;45472;-68
2023/09/17 05:25:55;;;;;;;;;6.67;6.67;;;;;20.93;68.86;100642.09;5014945;28;45418;-68
2023/09/17 05:28:21;;;;;;;;;5.00;5.00;;;;;20.90;69.25;100646.06;5020115;28;46037;-68
2023/09/17 05:30:46;;;;;;;;;9.00;7.00;;;;;20.76;69.04;100617.41;5032175;28;45702;-69
2023/09/17 05:33:11;;;;;;;;;7.33;5.67;;;;;20.90;68.95;100643.34;5019076;28;45409;-69
2023/09/17 05:35:37;;;;;;;;;7.00;6.67;;;;;20.68;69.10;100601.44;5031923;28;45496;-67
2023/09/17 05:38:03;;;;;;;;;5.00;5.00;;;;;20.84;69.25;100635.28;5031101;28;45404;-68
2023/09/17 05:40:28;;;;;;;;;7.67;5.67;;;;;20.85;69.42;100643.16;5004035;28;47884;-68
2023/09/17 05:42:54;;;;;;;;;6.00;6.00;;;;;20.40;69.81;100569.28;5032391;28;45310;-68
2023/09/17 05:45:19;;;;;;;;;6.33;5.33;;;;;20.70;69.73;100612.88;5019091;28;45297;-68
2023/09/17 05:47:45;;;;;;;;;7.00;7.00;;;;;20.80;69.62;100636.72;5019583;28;45590;-68
2023/09/17 05:50:11;;;;;;;;;6.33;6.33;;;;;20.77;69.55;100624.47;5018649;28;46563;-68
2023/09/17 05:52:37;;;;;;;;;6.33;6.33;;;;;20.48;69.37;100570.97;5019085;28;45529;-68
2023/09/17 05:55:05;;;;;;;;;6.33;6.00;;;;;20.82;69.46;100632.78;5032762;28;45604;-69
2023/09/17 05:57:31;;;;;;;;;7.33;7.00;;;;;20.70;69.29;100610.16;5034357;28;45734;-73
2023/09/17 05:59:58;;;;;;;;;6.67;6.67;;;;;20.83;69.38;100626.34;5028405;28;46475;-67
2023/09/17 06:02:23;;;;;;;;;6.33;6.33;;;;;20.88;69.51;100639.19;5029765;28;45302;-68
2023/09/17 06:04:52;;;;;;;;;6.00;6.00;;;;;20.89;69.12;100630.06;5030099;28;45494;-68
2023/09/17 06:07:18;;;;;;;;;8.00;7.00;;;;;20.87;69.18;100624.03;5023660;28;45508;-68
2023/09/17 06:09:44;;;;;;;;;6.00;6.00;;;;;20.92;68.93;100625.03;5018680;28;46532;-68
2023/09/17 06:12:09;;;;;;;;;6.00;6.00;;;;;20.68;68.84;100577.13;5018730;28;45258;-69
2023/09/17 06:14:35;;;;;;;;;6.67;6.67;;;;;20.95;68.99;100618.38;5022351;28;45289;-69
2023/09/17 06:17:00;;;;;;;;;6.00;6.00;;;;;20.95;69.04;100630.00;5018677;28;45249;-69
2023/09/17 06:19:27;;;;;;;;;6.33;4.67;;;;;20.99;68.68;100624.16;5020626;28;52878;-68
2023/09/17 06:21:53;;;;;;;;;8.33;6.67;;;;;21.02;68.69;100615.63;5017308;28;46407;-68
2023/09/17 06:24:18;;;;;;;;;7.00;7.00;;;;;21.09;68.23;100621.84;5017752;28;45576;-68
2023/09/17 06:26:43;;;;;;;;;6.33;4.67;;;;;21.14;68.46;100640.94;5020344;28;45546;-68
2023/09/17 06:29:09;;;;;;;;;5.33;5.33;;;;;21.14;68.30;100641.78;5024196;28;45518;-67
2023/09/17 06:31:34;;;;;;;;;7.67;6.33;;;;;21.28;68.11;100645.28;5003075;28;45250;-68
2023/09/17 06:34:00;;;;;;;;;6.67;5.67;;;;;21.31;67.87;100638.59;5022666;28;45414;-71
2023/09/17 06:36:27;;;;;;;;;7.33;6.00;;;;;21.38;67.50;100645.63;5027471;28;45448;-70
2023/09/17 06:38:52;;;;;;;;;6.00;6.00;;;;;21.40;67.35;100651.66;5018316;28;47880;-69
2023/09/17 06:41:17;;;;;;;;;5.67;5.33;;;;;21.34;67.63;100649.81;5016236;28;45572;-69
2023/09/17 06:43:43;;;;;;;;;7.00;6.00;;;;;21.08;67.48;100601.28;5026680;28;47983;-68
2023/09/17 06:46:08;;;;;;;;;7.67;7.67;;;;;21.30;67.22;100648.59;5021709;28;46699;-72
2023/09/17 06:48:34;;;;;;;;;6.67;6.33;;;;;21.30;67.48;100651.31;5037833;28;45848;-68
2023/09/17 06:50:59;;;;;;;;;4.67;4.67;;;;;21.15;67.38;100616.41;5033354;28;45392;-68
2023/09/17 06:53:24;;;;;;;;;6.33;4.33;;;;;21.33;67.70;100631.09;5024360;28;45478;-68
2023/09/17 06:55:50;;;;;;;;;5.00;5.00;;;;;21.05;67.53;100585.50;5018119;28;50806;-68
2023/09/17 06:58:16;;;;;;;;;6.00;6.00;;;;;21.31;67.15;100628.63;5018231;28;45794;-69
2023/09/17 07:00:43;;;;;;;;;7.00;4.67;;;;;21.39;67.29;100641.88;5025944;28;45287;-69
2023/09/17 07:03:08;;;;;;;;;5.33;5.00;;;;;21.39;67.12;100632.94;5018040;28;45237;-69
2023/09/17 07:05:33;;;;;;;;;6.00;6.00;;;;;21.54;66.84;100639.69;5018041;28;45342;-67
2023/09/17 07:07:59;;;;;;;;;7.00;6.00;;;;;21.65;66.74;100645.47;5018346;28;46517;-68
2023/09/17 07:10:25;;;;;;;;;5.33;5.33;;;;;21.71;66.39;100652.72;5029855;28;45521;-69
2023/09/17 07:12:51;;;;;;;;;10.67;10.67;;;;;21.77;66.14;100654.53;5031542;28;45454;-68
2023/09/17 07:15:18;;;;;;;;;8.00;8.00;;;;;21.81;65.99;100653.88;5017806;28;45516;-68
2023/09/17 07:17:43;;;;;;;;;7.00;7.00;;;;;21.79;65.85;100653.25;5017270;28;46718;-68
2023/09/17 07:20:13;;;;;;;;;7.00;6.00;;;;;21.72;65.70;100636.25;5020558;28;45340;-69
2023/09/17 07:22:38;;;;;;;;;6.00;6.00;;;;;21.84;65.57;100647.22;5018695;28;45418;-68
2023/09/17 07:25:04;;;;;;;;;7.00;6.67;;;;;21.65;65.71;100613.00;5028089;28;45511;-66
2023/09/17 07:27:30;;;;;;;;;9.33;7.00;;;;;21.83;65.81;100629.31;5027976;28;47333;-68
2023/09/17 07:29:56;;;;;;;;;6.33;5.33;;;;;21.84;65.71;100636.38;5019907;28;45408;-69
2023/09/17 07:32:22;;;;;;;;;6.33;6.00;;;;;21.80;65.70;100627.03;5022841;28;45235;-68
2023/09/17 07:34:48;;;;;;;;;6.33;6.33;;;;;21.85;65.35;100638.88;5026227;28;45471;-68
2023/09/17 07:37:13;;;;;;;;;6.00;6.00;;;;;21.81;65.37;100629.50;5035918;28;46536;-69
2023/09/17 07:39:39;;;;;;;;;6.00;6.00;;;;;21.91;65.10;100641.72;5020854;28;45317;-69
2023/09/17 07:42:05;;;;;;;;;8.00;6.00;;;;;21.89;65.48;100625.72;5017283;28;45516;-68
2023/09/17 07:44:30;;;;;;;;;5.00;5.00;;;;;22.12;65.12;100641.38;5017645;28;45226;-70
2023/09/17 07:46:56;;;;;;;;;8.33;7.67;;;;;22.25;64.79;100640.44;5024395;28;50718;-69
2023/09/17 07:49:26;;;;;;;;;8.33;6.67;;;;;22.33;63.79;100632.84;5027702;28;45416;-70
2023/09/17 07:51:51;;;;;;;;;6.33;5.00;;;;;22.51;63.51;100651.00;5021075;28;45440;-70
2023/09/17 07:54:17;;;;;;;;;5.67;5.67;;;;;22.65;63.04;100646.25;5020366;28;45519;-70
2023/09/17 07:56:42;;;;;;;;;5.33;5.33;;;;;22.80;63.18;100646.69;5031624;28;58358;-74
2023/09/17 07:59:08;;;;;;;;;7.00;7.00;;;;;22.97;62.73;100649.66;5008155;28;46152;-69
2023/09/17 08:01:33;;;;;;;;;8.67;6.67;;;;;23.15;61.74;100654.22;5017865;28;45506;-69
2023/09/17 08:03:58;;;;;;;;;6.00;6.00;;;;;23.16;61.82;100645.84;5025739;28;45360;-69
2023/09/17 08:06:25;;;;;;;;;7.33;6.33;;;;;23.26;61.29;100659.72;5028330;28;46719;-69
2023/09/17 08:08:51;;;;;;;;;6.00;6.00;;;;;23.37;60.87;100661.63;5029328;28;46387;-69
2023/09/17 08:11:16;;;;;;;;;7.00;7.00;;;;;23.51;60.55;100651.44;5018860;28;45446;-68
2023/09/17 08:13:42;;;;;;;;;4.67;4.67;;;;;23.36;60.37;100608.44;5026903;28;45431;-69
2023/09/17 08:16:07;;;;;;;;;6.00;6.00;;;;;23.95;59.21;100666.44;5031993;28;45987;-69
2023/09/17 08:18:32;;;;;;;;;5.67;5.67;;;;;24.11;59.08;100669.53;5017505;28;45301;-69
2023/09/17 08:20:58;;;;;;;;;5.67;4.00;;;;;24.22;58.54;100674.13;5017423;28;45214;-69
2023/09/17 08:23:24;;;;;;;;;7.00;5.00;;;;;24.26;58.10;100661.75;5025659;28;45579;-69
2023/09/17 08:25:50;;;;;;;;;5.33;5.33;;;;;24.15;58.38;100628.06;5020658;28;47610;-69
2023/09/17 08:28:16;;;;;;;;;5.00;5.00;;;;;24.43;58.79;100649.13;5025686;28;45455;-70
2023/09/17 08:30:41;;;;;;;;;7.00;6.67;;;;;24.57;57.52;100655.13;5017212;28;45469;-69
2023/09/17 08:33:09;;;;;;;;;10.33;9.00;;;;;24.63;57.56;100643.31;5025676;28;45269;-68
2023/09/17 08:35:35;;;;;;;;;6.00;5.00;;;;;24.39;57.13;100582.72;5025271;28;47591;-69
2023/09/17 08:38:01;;;;;;;;;6.00;6.00;;;;;24.85;57.00;100654.38;5011077;28;45599;-68
2023/09/17 08:40:27;;;;;;;;;7.00;6.00;;;;;24.99;56.30;100653.06;5002080;28;45471;-68
2023/09/17 08:42:54;;;;;;;;;8.00;8.00;;;;;24.97;56.38;100638.03;5022654;28;45467;-69
2023/09/17 08:45:21;;;;;;;;;4.75;4.50;;;;;24.78;55.99;100615.59;5031160;28;46720;-69
2023/09/17 08:47:47;;;;;;;;;6.67;5.33;;;;;25.03;56.26;100654.25;5025739;28;45571;-69
2023/09/17 08:50:12;;;;;;;;;7.67;5.00;;;;;24.81;56.13;100628.72;5027563;28;45539;-69
2023/09/17 08:52:43;;;;;;;;;5.00;5.00;;;;;24.94;55.97;100652.94;5030293;28;45332;-77
2023/09/17 08:55:10;;;;;;;;;5.00;5.00;;;;;24.96;56.26;100639.09;5020880;28;45798;-70
2023/09/17 08:57:38;;;;;;;;;6.00;6.00;;;;;24.98;55.88;100629.63;5023793;28;45914;-69
2023/09/17 09:00:09;;;;;;;;;5.00;5.00;;;;;25.04;55.69;100645.03;5029329;28;45506;-67
2023/09/17 09:02:55;;;;;;;;;2.00;2.00;;;;;24.77;55.85;100605.81;5018906;28;45236;-68
2023/09/17 09:05:25;;;;;;;;;6.25;6.25;;;;;24.82;56.11;100625.75;5027263;28;46152;-69
2023/09/17 09:07:51;;;;;;;;;7.33;7.33;;;;;25.08;55.96;100656.25;5020087;28;45275;-67
2023/09/17 09:10:18;;;;;;;;;8.33;5.67;;;;;25.13;55.86;100657.16;5019573;28;45373;-68
2023/09/17 09:12:45;;;;;;;;;4.00;3.00;;;;;25.23;55.85;100642.94;5023333;28;45303;-68
2023/09/17 09:15:11;;;;;;;;;6.33;6.33;;;;;25.28;55.70;100623.97;5015939;28;46691;-68
2023/09/17 09:17:38;;;;;;;;;7.00;7.00;;;;;25.62;54.19;100635.72;5011835;28;45444;-69
2023/09/17 09:20:10;;;;;;;;;10.00;8.25;;;;;25.81;54.37;100633.63;5025565;28;45506;-68
2023/09/17 09:22:37;;;;;;;;;7.67;5.00;;;;;26.04;53.93;100638.13;5019739;28;45536;-69
2023/09/17 09:25:03;;;;;;;;;7.33;6.33;;;;;26.10;53.40;100626.22;5019467;28;46568;-68
2023/09/17 09:27:28;;;;;;;;;6.00;6.00;;;;;26.27;52.85;100645.28;5013493;28;45552;-67
2023/09/17 09:29:53;;;;;;;;;9.00;8.00;;;;;26.30;52.92;100648.31;5029860;28;45531;-68
2023/09/17 09:32:19;;;;;;;;;6.33;6.00;;;;;26.31;52.83;100649.97;5027319;28;45532;-74
2023/09/17 09:34:47;;;;;;;;;4.67;4.67;;;;;26.27;53.05;100639.81;5024548;28;45546;-73
2023/09/17 09:37:12;;;;;;;;;6.00;4.67;;;;;26.29;52.56;100651.31;5029620;28;45321;-68
2023/09/17 09:39:38;;;;;;;;;7.67;6.00;;;;;26.06;52.92;100592.38;5010753;28;45373;-67
2023/09/17 09:42:05;;;;;;;;;6.67;6.67;;;;;26.43;53.01;100629.97;5034338;28;45481;-68
2023/09/17 09:44:31;;;;;;;;;6.33;5.67;;;;;26.51;52.61;100622.19;5032773;28;46735;-72
2023/09/17 09:46:59;;;;;;;;;6.33;6.33;;;;;26.64;52.10;100600.03;5017770;28;45712;-71
2023/09/17 09:49:25;;;;;;;;;4.75;4.75;;;;;26.92;51.33;100612.63;5025777;28;45302;-69
2023/09/17 09:51:51;;;;;;;;;7.67;7.00;;;;;26.86;50.70;100580.94;5017553;28;45487;-70
2023/09/17 09:54:17;;;;;;;;;6.67;6.67;;;;;27.22;50.76;100603.16;5033989;28;47654;-67
2023/09/17 09:56:43;;;;;;;;;5.33;5.33;;;;;27.14;50.37;100566.22;5023581;28;45291;-68
2023/09/17 09:59:08;;;;;;;;;6.33;6.00;;;;;27.32;49.33;100575.97;5021048;28;45414;-67
2023/09/17 10:01:38;;;;;;;;;7.67;7.67;;;;;27.62;49.91;100604.63;5019301;28;45420;-68
2023/09/17 10:04:13;;;;;;;;;9.67;7.00;;;;;27.42;49.46;100540.53;5018862;28;46373;-72
2023/09/17 10:06:40;;;;;;;;;5.00;5.00;;;;;27.71;49.23;100576.59;5032813;28;45366;-69
2023/09/17 10:09:13;;;;;;;;;10.33;7.00;;;;;27.45;49.26;100547.41;5022835;28;45446;-68
2023/09/17 10:11:38;;;;;;;;;9.67;8.00;;;;;27.65;49.32;100576.84;5019987;28;45515;-68
2023/09/17 10:14:07;;;;;;;;;5.33;5.33;;;;;27.55;49.53;100583.00;5026315;28;47868;-68
2023/09/17 10:16:36;;;;;;;;;8.67;7.33;;;;;27.43;49.16;100572.25;5030927;28;45407;-69
2023/09/17 10:19:04;;;;;;;;;6.75;6.25;;;;;27.02;48.88;100521.06;5029545;28;45569;-71
2023/09/17 10:21:37;;;;;;;;;7.00;7.00;;;;;27.45;49.50;100582.91;5025020;28;45571;-69
2023/09/17 10:24:03;;;;;;;;;5.00;5.00;;;;;27.38;49.32;100572.19;5020500;28;46803;-72
2023/09/17 10:26:37;;;;;;;;;7.33;7.33;;;;;27.33;49.94;100569.41;5016780;28;45509;-71
2023/09/17 10:29:04;;;;;;;;;9.33;7.67;;;;;27.32;49.42;100561.50;5025659;28;46363;-71
2023/09/17 10:31:30;;;;;;;;;7.00;6.67;;;;;27.21;49.54;100560.56;5018805;28;45263;-69
2023/09/17 10:33:56;;;;;;;;;9.00;9.00;;;;;27.17;50.42;100538.41;5020518;28;46450;-69
2023/09/17 10:36:22;;;;;;;;;6.67;5.67;;;;;27.03;50.22;100509.06;5025597;28;45258;-68
2023/09/17 10:38:51;;;;;;;;;11.33;11.00;;;;;27.19;49.40;100535.44;5023056;28;45230;-69
2023/09/17 10:41:21;;;;;;;;;7.33;6.00;;;;;27.18;50.31;100550.16;5015987;28;45448;-69
2023/09/17 10:43:48;;;;;;;;;10.00;9.00;;;;;26.93;50.49;100535.16;5032350;28;47133;-68
2023/09/17 10:46:15;;;;;;;;;7.00;6.67;;;;;27.06;50.57;100546.78;5028532;28;46376;-69
2023/09/17 10:48:42;;;;;;;;;5.00;5.00;;;;;27.09;50.78;100544.34;5025047;28;45534;-68
2023/09/17 10:51:07;;;;;;;;;5.33;5.33;;;;;27.14;51.05;100538.94;5018931;28;45504;-68
2023/09/17 10:53:33;;;;;;;;;9.33;8.33;;;;;27.07;50.60;100541.06;5025858;28;46458;-68
2023/09/17 10:56:08;;;;;;;;;7.33;7.33;;;;;26.89;51.04;100536.75;5018111;28;45296;-71
2023/09/17 10:58:43;;;;;;;;;7.67;7.67;;;;;26.88;51.23;100537.84;5018328;28;45285;-69
2023/09/17 11:01:13;;;;;;;;;6.67;6.67;;;;;26.82;51.14;100536.13;5006813;28;45658;-70
2023/09/17 11:03:44;;;;;;;;;8.00;7.00;;;;;26.74;51.32;100530.31;5017797;28;46341;-69
2023/09/17 11:06:16;;;;;;;;;5.00;5.00;;;;;26.74;51.64;100522.13;5017627;28;45340;-68
2023/09/17 11:08:46;;;;;;;;;6.00;6.00;;;;;26.87;51.67;100533.47;5017446;28;45383;-69
2023/09/17 11:11:14;;;;;;;;;9.67;7.33;;;;;27.00;51.47;100547.78;5021483;28;45567;-68
2023/09/17 11:13:41;;;;;;;;;7.00;6.00;;;;;27.00;51.36;100547.78;5025291;28;46792;-68
2023/09/17 11:16:07;;;;;;;;;8.00;7.67;;;;;26.93;50.94;100537.06;5018421;28;45278;-68
2023/09/17 11:18:33;;;;;;;;;8.67;8.00;;;;;26.92;52.07;100541.69;5017243;28;45499;-72
2023/09/17 11:21:08;;;;;;;;;9.75;8.25;;;;;26.98;51.41;100540.66;5017402;28;45339;-72